Time;durP1;ratioP1;P1;durP2;ratioP2;P2;SDS_P1;SDS_P2;PMS_P1;PMS_P2;Temp;Humidity;BMP_temperature;BMP_pressure;BME280_temperature;BME280_humidity;BME280_pressure;Samples;Min_cycle;Max_cycle;Signal;HPM_P1;HPM_P2
2021/12/01 00:01:05;;;;;;;2.00;1.13;;;5.60;99.90;;;;;;4970181;28;20535;-63
2021/12/01 00:03:34;;;;;;;1.90;1.10;;;5.60;99.90;;;;;;4969492;28;20466;-64
2021/12/01 00:06:02;;;;;;;4.27;2.30;;;5.60;99.90;;;;;;4969935;28;20455;-63
2021/12/01 00:08:29;;;;;;;2.27;1.30;;;5.60;99.90;;;;;;4969452;28;20476;-63
2021/12/01 00:10:56;;;;;;;2.90;1.40;;;5.50;99.90;;;;;;4969732;28;20451;-63
2021/12/01 00:13:25;;;;;;;2.33;1.33;;;5.50;99.90;;;;;;4969504;28;20486;-62
2021/12/01 00:15:52;;;;;;;2.13;1.30;;;5.50;99.90;;;;;;4969786;28;21190;-63
2021/12/01 00:18:19;;;;;;;2.60;1.10;;;5.50;99.90;;;;;;4969026;28;20468;-64
2021/12/01 00:20:47;;;;;;;2.23;1.20;;;5.40;99.90;;;;;;4969652;28;20451;-62
2021/12/01 00:23:14;;;;;;;2.53;1.10;;;5.40;99.90;;;;;;4969267;28;20440;-63
2021/12/01 00:25:42;;;;;;;2.20;1.53;;;5.40;99.90;;;;;;4969681;28;20461;-63
2021/12/01 00:28:10;;;;;;;2.10;1.40;;;5.30;99.90;;;;;;4968784;28;20522;-62
2021/12/01 00:30:40;;;;;;;2.53;1.37;;;5.30;99.90;;;;;;4968987;28;20522;-64
2021/12/01 00:33:08;;;;;;;2.07;1.07;;;5.30;99.90;;;;;;4967885;28;20475;-63
2021/12/01 00:35:35;;;;;;;2.20;1.50;;;5.30;99.90;;;;;;4967874;28;20531;-63
2021/12/01 00:38:03;;;;;;;2.00;1.20;;;5.30;99.90;;;;;;4968886;28;20830;-62
2021/12/01 00:40:31;;;;;;;2.50;1.00;;;5.30;99.90;;;;;;4969364;28;20432;-62
2021/12/01 00:42:58;;;;;;;3.03;1.23;;;5.20;99.90;;;;;;4969289;28;20535;-64
2021/12/01 00:45:27;;;;;;;2.20;1.20;;;5.20;99.90;;;;;;4969512;28;21017;-64
2021/12/01 00:47:53;;;;;;;2.30;1.30;;;5.20;99.90;;;;;;4969102;28;20447;-63
2021/12/01 00:50:23;;;;;;;2.50;1.70;;;5.20;99.90;;;;;;4969086;28;20452;-64
2021/12/01 00:52:51;;;;;;;4.23;1.60;;;5.20;99.90;;;;;;4969085;28;20447;-64
2021/12/01 00:55:19;;;;;;;2.53;1.47;;;5.20;99.90;;;;;;4969006;28;20447;-64
2021/12/01 00:57:46;;;;;;;2.90;1.63;;;5.20;99.90;;;;;;4969077;28;20446;-63
2021/12/01 01:00:14;;;;;;;2.27;1.60;;;5.20;99.90;;;;;;4969141;28;20440;-62
2021/12/01 01:02:41;;;;;;;2.53;1.73;;;5.20;99.90;;;;;;4969259;28;20455;-61
2021/12/01 01:05:10;;;;;;;3.20;1.47;;;5.20;99.90;;;;;;4968846;28;20542;-62
2021/12/01 01:07:37;;;;;;;2.43;1.30;;;5.20;99.90;;;;;;4968854;28;20458;-63
2021/12/01 01:10:17;;;;;;;2.53;1.50;;;5.20;99.90;;;;;;4968801;28;20459;-63
2021/12/01 01:18:14;;;;;;;2.53;1.23;;;5.20;99.90;;;;;;4968424;28;20440;-63
2021/12/01 01:20:41;;;;;;;2.00;1.30;;;5.10;99.90;;;;;;4968753;28;20448;-61
2021/12/01 01:23:08;;;;;;;2.40;1.30;;;5.10;99.90;;;;;;4968899;28;20450;-64
2021/12/01 01:25:35;;;;;;;2.30;1.10;;;5.10;99.90;;;;;;4969123;28;20446;-63
2021/12/01 01:28:03;;;;;;;2.67;1.20;;;5.10;99.90;;;;;;4968246;28;20471;-62
2021/12/01 01:30:31;;;;;;;2.80;1.20;;;5.10;99.90;;;;;;4969006;28;20454;-63
2021/12/01 01:32:58;;;;;;;2.73;1.20;;;5.10;99.90;;;;;;4968900;28;20457;-64
2021/12/01 01:35:25;;;;;;;2.47;1.43;;;5.10;99.90;;;;;;4969033;28;20451;-63
2021/12/01 01:37:52;;;;;;;2.17;0.97;;;5.10;99.90;;;;;;4968141;28;20455;-64
2021/12/01 01:40:20;;;;;;;2.10;1.20;;;5.10;99.90;;;;;;4968925;28;20534;-64
2021/12/01 01:42:48;;;;;;;1.80;1.00;;;5.10;99.90;;;;;;4971720;28;20462;-64
2021/12/01 01:45:17;;;;;;;2.30;1.20;;;5.20;99.90;;;;;;4972290;28;20444;-64
2021/12/01 01:47:59;;;;;;;2.27;1.10;;;5.20;99.90;;;;;;4971715;28;20539;-63
2021/12/01 01:50:35;;;;;;;3.10;1.40;;;5.20;99.90;;;;;;4971925;28;20455;-63
2021/12/01 01:53:04;;;;;;;1.93;1.30;;;5.20;99.90;;;;;;4971826;28;20546;-64
2021/12/01 01:55:31;;;;;;;3.20;1.67;;;5.20;99.90;;;;;;4972110;28;20451;-64
2021/12/01 01:57:58;;;;;;;2.73;1.20;;;5.20;99.90;;;;;;4971333;28;20457;-63
2021/12/01 02:00:27;;;;;;;3.17;1.67;;;5.20;99.90;;;;;;4971920;28;20440;-64
2021/12/01 02:02:55;;;;;;;2.13;1.43;;;5.20;99.90;;;;;;4971826;28;20494;-63
2021/12/01 02:05:22;;;;;;;2.10;1.10;;;5.20;99.90;;;;;;4971751;28;20873;-62
2021/12/01 02:07:51;;;;;;;3.00;1.60;;;5.20;99.90;;;;;;4971019;28;20943;-64
2021/12/01 02:10:18;;;;;;;3.00;1.80;;;5.20;99.90;;;;;;4971491;28;20810;-64
2021/12/01 02:12:45;;;;;;;3.50;1.80;;;5.20;99.90;;;;;;4969486;28;21197;-64
2021/12/01 02:15:14;;;;;;;2.17;1.20;;;5.20;99.90;;;;;;4971544;28;20486;-63
2021/12/01 02:17:42;;;;;;;2.50;1.63;;;5.20;99.90;;;;;;4970995;28;20447;-63
2021/12/01 02:20:20;;;;;;;2.37;1.60;;;5.20;99.90;;;;;;4971422;28;20452;-62
2021/12/01 02:22:48;;;;;;;2.50;1.90;;;5.30;99.90;;;;;;4971618;28;21213;-61
2021/12/01 02:25:15;;;;;;;3.60;1.90;;;5.20;99.90;;;;;;4971352;28;20823;-63
2021/12/01 02:27:42;;;;;;;2.47;1.70;;;5.20;99.90;;;;;;4971062;28;20551;-65
2021/12/01 02:30:09;;;;;;;2.43;1.63;;;5.20;99.90;;;;;;4971298;28;20462;-64
2021/12/01 02:32:36;;;;;;;4.37;1.77;;;5.30;99.90;;;;;;4971629;28;20906;-64
2021/12/01 02:35:03;;;;;;;2.80;1.80;;;5.30;99.90;;;;;;4971379;28;21002;-62
2021/12/01 02:37:32;;;;;;;3.97;1.83;;;5.30;99.90;;;;;;4971671;28;20440;-63
2021/12/01 02:39:59;;;;;;;3.70;1.60;;;5.30;99.90;;;;;;4971217;28;20468;-63
2021/12/01 02:42:25;;;;;;;2.30;1.47;;;5.30;99.90;;;;;;4971229;28;20934;-63
2021/12/01 02:44:52;;;;;;;2.80;1.70;;;5.30;99.90;;;;;;4971464;28;20455;-65
2021/12/01 02:47:19;;;;;;;2.10;1.40;;;5.30;99.90;;;;;;4970628;28;20455;-63
2021/12/01 02:49:46;;;;;;;4.00;1.67;;;5.30;99.90;;;;;;4970849;28;20604;-62
2021/12/01 02:52:15;;;;;;;2.77;1.83;;;5.40;99.90;;;;;;4970650;28;20823;-63
2021/12/01 02:54:43;;;;;;;2.70;1.70;;;5.40;99.90;;;;;;4970969;28;21035;-63
2021/12/01 02:57:10;;;;;;;2.33;1.57;;;5.50;99.90;;;;;;4970462;28;20968;-63
2021/12/01 02:59:38;;;;;;;3.10;1.80;;;5.40;99.90;;;;;;4970685;28;21248;-65
2021/12/01 03:02:06;;;;;;;4.10;1.90;;;5.50;99.90;;;;;;4970415;28;20539;-63
2021/12/01 03:04:34;;;;;;;2.50;1.40;;;5.40;99.90;;;;;;4970915;28;20452;-63
2021/12/01 03:07:02;;;;;;;2.87;1.30;;;5.50;99.90;;;;;;4970424;28;20540;-65
2021/12/01 03:09:30;;;;;;;3.30;1.60;;;5.50;99.90;;;;;;4970786;28;20499;-64
2021/12/01 03:11:58;;;;;;;2.67;1.60;;;5.50;99.90;;;;;;4970538;28;20479;-62
2021/12/01 03:14:25;;;;;;;2.20;1.43;;;5.50;99.90;;;;;;4970633;28;20856;-63
2021/12/01 03:16:54;;;;;;;2.30;1.40;;;5.50;99.90;;;;;;4970432;28;20456;-63
2021/12/01 03:19:21;;;;;;;1.90;1.13;;;5.50;99.90;;;;;;4970897;28;20471;-61
2021/12/01 03:21:48;;;;;;;2.10;1.23;;;5.50;99.90;;;;;;4970876;28;20455;-61
2021/12/01 03:24:15;;;;;;;3.10;1.43;;;5.60;99.90;;;;;;4970191;28;20845;-63
2021/12/01 03:26:42;;;;;;;1.97;1.20;;;5.60;99.90;;;;;;4969945;28;20456;-64
2021/12/01 03:29:12;;;;;;;2.00;1.27;;;5.60;99.90;;;;;;4969763;28;20471;-62
2021/12/01 03:31:39;;;;;;;2.27;1.30;;;5.60;99.90;;;;;;4970247;28;20454;-63
2021/12/01 03:34:06;;;;;;;2.60;1.13;;;5.60;99.90;;;;;;4970006;28;20503;-65
2021/12/01 03:36:33;;;;;;;1.90;1.10;;;5.70;99.90;;;;;;4969831;28;20443;-63
2021/12/01 03:39:01;;;;;;;2.63;1.20;;;5.70;99.90;;;;;;4969704;28;20479;-64
2021/12/01 03:41:28;;;;;;;1.93;1.13;;;5.70;99.90;;;;;;4969979;28;20463;-63
2021/12/01 03:43:54;;;;;;;2.40;1.47;;;5.70;99.90;;;;;;4969495;28;20452;-63
2021/12/01 03:46:23;;;;;;;6.13;1.60;;;5.70;99.90;;;;;;4969550;28;20452;-64
2021/12/01 03:48:50;;;;;;;1.97;0.90;;;5.80;99.90;;;;;;4969829;28;20472;-63
2021/12/01 03:51:17;;;;;;;2.10;1.20;;;5.80;99.90;;;;;;4969764;28;20452;-63
2021/12/01 03:53:44;;;;;;;1.90;1.10;;;5.80;99.90;;;;;;4969498;28;20463;-63
2021/12/01 03:56:11;;;;;;;2.40;1.13;;;5.80;99.90;;;;;;4969475;28;20463;-61
2021/12/01 03:58:38;;;;;;;2.30;1.10;;;5.90;99.90;;;;;;4969416;28;20475;-63
2021/12/01 04:01:05;;;;;;;3.10;1.40;;;5.80;99.90;;;;;;4969431;28;20460;-63
2021/12/01 04:03:33;;;;;;;2.20;1.30;;;5.80;99.90;;;;;;4967554;28;20983;-64
2021/12/01 04:05:59;;;;;;;2.10;1.43;;;5.90;99.90;;;;;;4968587;28;20456;-64
2021/12/01 04:08:26;;;;;;;2.10;1.20;;;5.90;99.90;;;;;;4968975;28;20953;-64
2021/12/01 04:10:53;;;;;;;2.23;1.27;;;5.90;99.90;;;;;;4969268;28;20479;-61
2021/12/01 04:13:20;;;;;;;2.40;1.50;;;5.90;99.90;;;;;;4969353;28;20454;-62
2021/12/01 04:15:47;;;;;;;2.50;1.40;;;5.90;99.90;;;;;;4969120;28;20494;-64
2021/12/01 04:18:14;;;;;;;2.20;1.30;;;5.90;99.90;;;;;;4969077;28;21010;-65
2021/12/01 04:20:42;;;;;;;2.00;1.10;;;5.80;99.90;;;;;;4968927;28;20458;-64
2021/12/01 04:23:09;;;;;;;2.30;1.30;;;5.80;99.90;;;;;;4969257;28;21252;-64
2021/12/01 04:25:36;;;;;;;3.10;1.20;;;5.90;99.90;;;;;;4968942;28;20448;-65
2021/12/01 04:28:04;;;;;;;2.10;1.23;;;5.90;99.90;;;;;;4968827;28;20468;-63
2021/12/01 04:30:31;;;;;;;2.50;1.50;;;5.90;99.90;;;;;;4968997;28;20452;-65
2021/12/01 04:32:58;;;;;;;2.67;1.30;;;6.00;99.90;;;;;;4969197;28;20513;-64
2021/12/01 04:35:27;;;;;;;3.00;1.30;;;6.00;99.90;;;;;;4969134;28;20484;-64
2021/12/01 04:37:56;;;;;;;2.07;1.10;;;5.90;99.90;;;;;;4968284;28;20456;-63
2021/12/01 04:40:23;;;;;;;3.20;1.20;;;5.90;99.90;;;;;;4969253;28;20466;-64
2021/12/01 04:42:50;;;;;;;2.07;1.20;;;6.00;99.90;;;;;;4968777;28;20471;-64
2021/12/01 04:45:18;;;;;;;2.83;1.20;;;6.00;99.90;;;;;;4969079;28;20612;-63
2021/12/01 04:47:47;;;;;;;2.00;1.20;;;6.00;99.90;;;;;;4968192;28;20204;-63
2021/12/01 04:50:15;;;;;;;3.07;1.30;;;6.00;99.90;;;;;;4968691;28;20467;-63
2021/12/01 04:52:42;;;;;;;2.50;1.50;;;6.00;99.90;;;;;;4968570;28;20456;-64
2021/12/01 04:55:11;;;;;;;3.20;1.63;;;6.00;99.90;;;;;;4968871;28;20487;-63
2021/12/01 04:57:40;;;;;;;3.03;1.50;;;6.00;99.90;;;;;;4968271;28;20969;-63
2021/12/01 05:00:09;;;;;;;2.37;1.27;;;6.10;99.90;;;;;;4968647;28;21005;-64
2021/12/01 05:02:36;;;;;;;2.40;1.70;;;6.10;99.90;;;;;;4968445;28;20448;-64
2021/12/01 05:05:03;;;;;;;3.30;1.60;;;6.10;99.90;;;;;;4968740;28;20448;-62
2021/12/01 05:07:30;;;;;;;2.45;1.65;;;6.20;99.90;;;;;;4968374;28;20461;-63
2021/12/01 05:09:57;;;;;;;3.33;1.43;;;6.20;99.90;;;;;;4968679;28;20233;-63
2021/12/01 05:12:25;;;;;;;4.53;1.37;;;6.20;99.90;;;;;;4968668;28;20895;-64
2021/12/01 05:14:53;;;;;;;3.37;1.77;;;6.20;99.90;;;;;;4968070;28;20490;-64
2021/12/01 05:17:20;;;;;;;2.77;1.80;;;6.20;99.90;;;;;;4971582;28;20574;-63
2021/12/01 05:19:47;;;;;;;3.10;1.33;;;6.20;99.90;;;;;;4972128;28;20472;-61
2021/12/01 05:22:14;;;;;;;2.00;1.37;;;6.20;99.90;;;;;;4972382;28;20467;-60
2021/12/01 05:24:41;;;;;;;2.20;1.20;;;6.20;99.90;;;;;;4971567;28;20445;-61
2021/12/01 05:27:08;;;;;;;2.97;1.60;;;6.20;99.90;;;;;;4972098;28;20828;-62
2021/12/01 05:29:36;;;;;;;2.03;1.10;;;6.30;99.90;;;;;;4964715;28;20506;-63
2021/12/01 05:32:03;;;;;;;2.10;1.50;;;6.30;99.90;;;;;;4971125;28;20450;-63
2021/12/01 05:34:30;;;;;;;2.23;1.40;;;6.30;99.90;;;;;;4971238;28;20478;-61
2021/12/01 05:37:00;;;;;;;2.40;1.17;;;6.30;99.90;;;;;;4971022;28;20454;-64
2021/12/01 05:39:27;;;;;;;7.90;1.60;;;6.30;99.90;;;;;;4970756;28;20488;-63
2021/12/01 05:41:54;;;;;;;2.30;1.40;;;6.30;99.90;;;;;;4971049;28;20447;-64
2021/12/01 05:44:20;;;;;;;2.27;1.47;;;6.40;99.90;;;;;;4971087;28;20455;-63
2021/12/01 05:46:49;;;;;;;2.40;1.30;;;6.40;99.90;;;;;;4970333;28;20455;-64
2021/12/01 05:49:16;;;;;;;2.43;1.20;;;6.40;99.90;;;;;;4970604;28;21042;-64
2021/12/01 05:51:43;;;;;;;3.10;1.53;;;6.40;99.90;;;;;;4970821;28;20458;-63
2021/12/01 05:54:10;;;;;;;2.67;1.60;;;6.50;99.90;;;;;;4971047;28;20540;-63
2021/12/01 05:56:37;;;;;;;2.80;1.50;;;6.50;99.90;;;;;;4970228;28;21143;-62
2021/12/01 05:59:04;;;;;;;2.57;1.00;;;6.60;99.90;;;;;;4969580;28;20479;-63
2021/12/01 06:01:31;;;;;;;2.73;1.00;;;6.60;99.90;;;;;;4970183;28;20531;-68
2021/12/01 06:03:59;;;;;;;2.30;1.57;;;6.70;99.90;;;;;;4969044;28;20448;-63
2021/12/01 06:06:26;;;;;;;1.83;0.90;;;6.70;99.90;;;;;;4969419;28;20856;-64
2021/12/01 06:08:53;;;;;;;1.93;0.90;;;6.70;99.90;;;;;;4970211;28;20474;-63
2021/12/01 06:11:22;;;;;;;2.97;0.70;;;6.70;99.90;;;;;;4970049;28;20456;-64
2021/12/01 06:13:51;;;;;;;1.67;0.80;;;6.80;99.90;;;;;;4967994;28;20456;-63
2021/12/01 06:16:20;;;;;;;2.03;0.80;;;6.80;99.90;;;;;;4970302;28;20519;-62
2021/12/01 06:18:47;;;;;;;2.30;0.77;;;6.90;99.90;;;;;;4970816;28;20531;-63
2021/12/01 06:21:16;;;;;;;1.93;1.00;;;7.00;99.90;;;;;;4970466;28;20460;-63
2021/12/01 06:23:43;;;;;;;2.77;1.20;;;7.00;99.90;;;;;;4970640;28;20554;-64
2021/12/01 06:26:10;;;;;;;2.33;1.10;;;6.90;99.90;;;;;;4970386;28;20842;-62
2021/12/01 06:28:37;;;;;;;2.35;1.10;;;6.90;99.90;;;;;;4968734;28;20508;-63
2021/12/01 06:31:05;;;;;;;2.00;1.00;;;7.00;99.90;;;;;;4970961;28;20219;-64
2021/12/01 06:33:32;;;;;;;2.20;0.90;;;7.00;99.90;;;;;;4969871;28;20448;-63
2021/12/01 06:35:59;;;;;;;1.73;0.80;;;6.90;99.90;;;;;;4970902;28;20487;-64
2021/12/01 06:38:27;;;;;;;2.20;0.90;;;6.90;99.90;;;;;;4970453;28;20469;-64
2021/12/01 06:40:54;;;;;;;2.00;0.90;;;6.90;99.90;;;;;;4970381;28;20452;-64
2021/12/01 06:43:21;;;;;;;2.10;1.00;;;6.90;99.90;;;;;;4970916;28;20448;-66
2021/12/01 06:45:48;;;;;;;1.80;0.90;;;6.90;99.90;;;;;;4970511;28;20450;-64
2021/12/01 06:48:14;;;;;;;4.40;1.03;;;6.80;99.90;;;;;;4964715;28;20846;-63
2021/12/01 06:50:41;;;;;;;1.60;0.80;;;6.80;99.90;;;;;;4969949;28;20460;-65
2021/12/01 06:53:08;;;;;;;1.83;0.70;;;6.70;99.90;;;;;;4970214;28;20448;-64
2021/12/01 06:55:37;;;;;;;2.70;0.90;;;6.80;99.90;;;;;;4969978;28;20487;-64
2021/12/01 06:58:04;;;;;;;2.63;0.80;;;6.90;99.90;;;;;;4970273;28;20475;-64
2021/12/01 07:00:31;;;;;;;1.70;0.70;;;6.90;99.90;;;;;;4970377;28;20452;-64
2021/12/01 07:02:58;;;;;;;2.60;1.13;;;7.00;99.90;;;;;;4970715;28;20448;-63
2021/12/01 07:05:24;;;;;;;2.30;0.90;;;7.10;99.90;;;;;;4970230;28;20448;-64
2021/12/01 07:07:52;;;;;;;2.07;0.93;;;7.20;99.90;;;;;;4969752;28;20456;-64
2021/12/01 07:10:20;;;;;;;2.50;1.10;;;7.20;99.90;;;;;;4970184;28;20455;-63
2021/12/01 07:12:48;;;;;;;2.23;1.20;;;7.20;99.90;;;;;;4970314;28;20544;-64
2021/12/01 07:15:15;;;;;;;2.60;1.33;;;7.20;99.90;;;;;;4970110;28;21017;-64
2021/12/01 07:17:43;;;;;;;4.50;2.30;;;7.30;99.90;;;;;;4969783;28;20455;-63
2021/12/01 07:20:11;;;;;;;2.00;0.90;;;7.30;99.90;;;;;;4970073;28;20459;-64
2021/12/01 07:22:38;;;;;;;2.03;1.00;;;7.30;99.90;;;;;;4970153;28;20444;-64
2021/12/01 07:25:06;;;;;;;2.47;0.80;;;7.40;99.90;;;;;;4970119;28;20452;-64
2021/12/01 07:27:33;;;;;;;2.00;0.90;;;7.40;99.90;;;;;;4969445;28;21145;-63
2021/12/01 07:30:02;;;;;;;2.00;0.80;;;7.50;99.90;;;;;;4970106;28;20500;-63
2021/12/01 07:32:29;;;;;;;1.70;0.90;;;7.50;99.90;;;;;;4970159;28;20950;-64
2021/12/01 07:34:56;;;;;;;2.43;1.00;;;7.50;99.90;;;;;;4970013;28;20444;-63
2021/12/01 07:37:23;;;;;;;2.67;0.90;;;7.60;99.90;;;;;;4969901;28;20463;-63
2021/12/01 07:39:51;;;;;;;2.90;0.97;;;7.60;99.90;;;;;;4969971;28;20474;-64
2021/12/01 07:42:19;;;;;;;1.63;0.60;;;7.70;99.90;;;;;;4970953;28;20440;-63
2021/12/01 07:44:46;;;;;;;2.77;0.93;;;7.70;99.90;;;;;;4971247;28;20444;-63
2021/12/01 07:47:14;;;;;;;1.50;0.60;;;7.70;99.90;;;;;;4971063;28;20950;-64
2021/12/01 07:49:41;;;;;;;1.70;0.60;;;7.80;99.90;;;;;;4969541;28;20476;-64
2021/12/01 07:52:08;;;;;;;1.60;0.67;;;7.80;99.90;;;;;;4969857;28;20460;-64
2021/12/01 07:54:36;;;;;;;2.53;1.10;;;7.90;99.90;;;;;;4969554;28;20450;-64
2021/12/01 07:57:03;;;;;;;1.97;0.80;;;7.90;99.90;;;;;;4969250;28;20488;-63
2021/12/01 07:59:30;;;;;;;1.90;0.90;;;7.90;99.90;;;;;;4969226;28;20464;-64
2021/12/01 08:01:57;;;;;;;1.83;0.83;;;8.00;99.90;;;;;;4969298;28;20444;-65
2021/12/01 08:04:25;;;;;;;1.77;0.60;;;8.00;99.90;;;;;;4969443;28;20871;-63
2021/12/01 08:06:52;;;;;;;1.90;0.70;;;8.10;99.90;;;;;;4968978;28;20991;-63
2021/12/01 08:09:19;;;;;;;2.97;1.10;;;8.10;99.90;;;;;;4969048;28;20468;-65
2021/12/01 08:11:46;;;;;;;1.70;0.77;;;8.20;99.90;;;;;;4969191;28;20440;-63
2021/12/01 08:14:13;;;;;;;1.90;0.70;;;8.20;99.90;;;;;;4969075;28;20440;-65
2021/12/01 08:16:40;;;;;;;3.00;0.87;;;8.20;99.90;;;;;;4968616;28;21006;-64
2021/12/01 08:19:07;;;;;;;1.80;0.83;;;8.20;99.90;;;;;;4969057;28;20474;-64
2021/12/01 08:21:35;;;;;;;2.43;0.80;;;8.30;99.90;;;;;;4969314;28;20905;-64
2021/12/01 08:24:02;;;;;;;1.80;0.80;;;8.30;99.90;;;;;;4969117;28;20445;-64
2021/12/01 08:26:29;;;;;;;1.90;0.60;;;8.30;99.90;;;;;;4968998;28;20504;-63
2021/12/01 08:28:56;;;;;;;2.47;0.90;;;8.30;99.90;;;;;;4969278;28;20460;-65
2021/12/01 08:31:23;;;;;;;1.93;0.80;;;8.30;99.90;;;;;;4968988;28;20547;-63
2021/12/01 08:33:50;;;;;;;2.20;0.70;;;8.30;99.90;;;;;;4969356;28;20444;-66
2021/12/01 08:36:18;;;;;;;2.00;0.80;;;8.40;99.90;;;;;;4968561;28;20491;-63
2021/12/01 08:38:46;;;;;;;1.90;0.73;;;8.50;99.90;;;;;;4969013;28;20468;-65
2021/12/01 08:41:13;;;;;;;2.17;0.83;;;8.60;99.90;;;;;;4969107;28;20476;-65
2021/12/01 08:43:39;;;;;;;1.67;0.70;;;8.70;99.90;;;;;;4969007;28;20534;-65
2021/12/01 08:46:07;;;;;;;1.70;0.63;;;8.80;99.90;;;;;;4968735;28;20439;-64
2021/12/01 08:48:35;;;;;;;1.60;0.60;;;8.90;99.90;;;;;;4968517;28;20464;-65
2021/12/01 08:51:03;;;;;;;2.97;0.73;;;9.00;99.90;;;;;;4969597;28;20942;-64
2021/12/01 08:53:30;;;;;;;1.90;0.70;;;9.20;99.90;;;;;;4972953;28;20456;-64
2021/12/01 08:55:59;;;;;;;2.10;0.87;;;9.40;99.90;;;;;;4970166;28;20486;-63
2021/12/01 08:58:26;;;;;;;2.13;0.90;;;9.50;99.90;;;;;;4968061;28;20497;-62
2021/12/01 09:00:54;;;;;;;2.90;0.67;;;9.50;99.90;;;;;;4971302;28;20439;-65
2021/12/01 09:03:22;;;;;;;2.13;0.80;;;9.60;99.90;;;;;;4971697;28;20855;-64
2021/12/01 09:05:50;;;;;;;1.87;0.60;;;9.60;99.90;;;;;;4971850;28;20448;-63
2021/12/01 09:08:20;;;;;;;1.50;0.50;;;9.70;99.90;;;;;;4971349;28;20481;-64
2021/12/01 09:10:48;;;;;;;2.20;0.60;;;9.70;99.90;;;;;;4971274;28;20463;-64
2021/12/01 09:13:17;;;;;;;1.60;0.53;;;9.80;99.90;;;;;;4965063;28;20479;-63
2021/12/01 09:15:44;;;;;;;1.60;0.57;;;9.90;99.90;;;;;;4971800;28;20582;-64
2021/12/01 09:18:11;;;;;;;2.90;0.70;;;9.80;99.90;;;;;;4971456;28;21032;-62
2021/12/01 09:20:38;;;;;;;1.80;0.60;;;9.90;99.90;;;;;;4971941;28;20881;-62
2021/12/01 09:23:06;;;;;;;2.80;0.50;;;9.90;99.90;;;;;;4971603;28;20448;-64
2021/12/01 09:25:34;;;;;;;1.87;0.90;;;9.90;99.90;;;;;;4972012;28;20463;-63
2021/12/01 09:28:02;;;;;;;1.50;0.50;;;9.90;99.90;;;;;;4971363;28;20455;-63
2021/12/01 09:30:30;;;;;;;1.50;0.60;;;9.90;99.90;;;;;;4971884;28;20873;-62
2021/12/01 09:32:57;;;;;;;1.60;0.60;;;9.80;99.90;;;;;;4971837;28;21056;-62
2021/12/01 09:35:24;;;;;;;1.60;0.60;;;9.80;99.90;;;;;;4971949;28;20954;-62
2021/12/01 09:37:51;;;;;;;1.60;0.50;;;9.80;99.90;;;;;;4971544;28;20834;-63
2021/12/01 09:40:19;;;;;;;1.50;0.60;;;9.80;99.90;;;;;;4970652;28;21049;-63
2021/12/01 09:42:48;;;;;;;1.90;0.70;;;9.80;99.90;;;;;;4969527;28;20452;-63
2021/12/01 09:45:16;;;;;;;1.50;0.50;;;9.80;99.90;;;;;;4964539;28;20452;-63
2021/12/01 09:47:45;;;;;;;8.17;6.07;;;9.80;99.90;;;;;;4970052;28;20442;-63
2021/12/01 09:50:12;;;;;;;6.13;1.67;;;9.80;99.90;;;;;;4970441;28;21135;-62
2021/12/01 09:52:39;;;;;;;1.60;0.60;;;9.80;99.90;;;;;;4970580;28;20491;-63
2021/12/01 09:55:12;;;;;;;1.50;0.60;;;9.80;99.90;;;;;;4970391;28;20447;-64
2021/12/01 09:57:38;;;;;;;1.90;0.60;;;9.80;99.90;;;;;;4970265;28;20490;-63
2021/12/01 10:00:07;;;;;;;2.63;1.23;;;9.80;99.90;;;;;;4970432;28;20475;-63
2021/12/01 10:02:35;;;;;;;1.63;0.60;;;9.80;99.90;;;;;;4969085;28;20452;-64
2021/12/01 10:05:03;;;;;;;1.60;0.70;;;9.80;99.90;;;;;;4970434;28;21102;-65
2021/12/01 10:07:34;;;;;;;2.30;0.63;;;9.80;99.90;;;;;;4970166;28;20463;-65
2021/12/01 10:10:07;;;;;;;1.60;0.50;;;9.80;99.90;;;;;;4970619;28;20835;-66
2021/12/01 10:12:48;;;;;;;2.77;0.70;;;9.80;99.90;;;;;;4970356;28;20482;-64
2021/12/01 10:15:15;;;;;;;3.30;1.10;;;9.90;99.90;;;;;;4970527;28;20463;-64
2021/12/01 10:17:42;;;;;;;2.47;1.30;;;9.90;99.90;;;;;;4969899;28;20490;-64
2021/12/01 10:20:16;;;;;;;5.13;1.27;;;9.90;99.90;;;;;;4969930;28;20452;-64
2021/12/01 10:23:08;;;;;;;1.53;0.53;;;10.00;99.90;;;;;;4969971;28;20957;-63
2021/12/01 10:25:35;;;;;;;1.40;0.40;;;10.10;99.90;;;;;;4970161;28;20451;-63
2021/12/01 10:28:02;;;;;;;1.40;0.40;;;10.10;99.90;;;;;;4968609;28;20454;-64
2021/12/01 10:30:41;;;;;;;1.60;0.50;;;10.20;99.90;;;;;;4968549;28;20458;-65
2021/12/01 10:33:10;;;;;;;1.67;0.53;;;10.30;99.90;;;;;;4969058;28;21001;-66
2021/12/01 10:35:40;;;;;;;1.83;0.60;;;10.30;99.90;;;;;;4969354;28;20444;-62
2021/12/01 10:38:07;;;;;;;1.60;0.50;;;10.50;99.90;;;;;;4968901;28;20483;-70
2021/12/01 10:40:35;;;;;;;1.60;0.50;;;10.50;99.90;;;;;;4964033;28;20920;-66
2021/12/01 10:43:06;;;;;;;1.47;0.50;;;10.60;99.90;;;;;;4967993;28;20964;-66
2021/12/01 10:45:36;;;;;;;1.50;0.53;;;10.60;99.90;;;;;;4968317;28;20452;-64
2021/12/01 10:48:06;;;;;;;1.57;0.60;;;10.60;99.90;;;;;;4967779;28;20459;-63
2021/12/01 10:50:34;;;;;;;2.47;0.70;;;10.50;99.90;;;;;;4967653;28;20462;-63
2021/12/01 10:53:08;;;;;;;1.90;0.60;;;10.50;99.90;;;;;;4967966;28;20954;-65
2021/12/01 10:55:42;;;;;;;2.37;0.60;;;10.40;99.90;;;;;;4967142;28;20464;-63
2021/12/01 10:58:09;;;;;;;1.53;0.60;;;10.40;99.90;;;;;;4967419;28;20487;-62
2021/12/01 11:00:41;;;;;;;1.60;0.73;;;10.40;99.90;;;;;;4967874;28;20452;-64
2021/12/01 11:03:10;;;;;;;1.50;0.50;;;10.40;99.90;;;;;;4967629;28;20510;-65
2021/12/01 11:05:38;;;;;;;1.60;0.60;;;10.40;99.90;;;;;;4967394;28;20456;-65
2021/12/01 11:08:15;;;;;;;1.70;0.60;;;10.40;99.90;;;;;;4966951;28;20472;-63
2021/12/01 11:10:44;;;;;;;1.80;0.60;;;10.40;99.90;;;;;;4967976;28;20459;-65
2021/12/01 11:13:11;;;;;;;1.77;0.60;;;10.30;99.90;;;;;;4967907;28;20451;-65
2021/12/01 11:15:40;;;;;;;1.93;0.50;;;10.40;99.90;;;;;;4968043;28;20474;-64
2021/12/01 11:18:09;;;;;;;1.57;0.50;;;10.40;99.90;;;;;;4968515;28;20484;-65
2021/12/01 11:20:47;;;;;;;1.60;0.50;;;10.40;99.90;;;;;;4967487;28;20459;-63
2021/12/01 11:23:18;;;;;;;1.63;0.50;;;10.40;99.90;;;;;;4968278;28;20448;-64
2021/12/01 11:25:47;;;;;;;1.40;0.50;;;10.40;99.90;;;;;;4968348;28;20444;-64
2021/12/01 11:28:16;;;;;;;1.40;0.50;;;10.40;99.90;;;;;;4967784;28;20483;-64
2021/12/01 11:30:45;;;;;;;2.10;0.50;;;10.30;99.90;;;;;;4968348;28;20543;-64
2021/12/01 11:33:16;;;;;;;2.53;0.70;;;10.30;99.90;;;;;;4967952;28;20516;-63
2021/12/01 11:35:45;;;;;;;1.63;0.50;;;10.30;99.90;;;;;;4968340;28;21062;-66
2021/12/01 11:38:12;;;;;;;3.40;0.60;;;10.20;99.90;;;;;;4967292;28;20483;-63
2021/12/01 11:40:41;;;;;;;1.43;0.50;;;10.30;99.90;;;;;;4968167;28;20805;-66
2021/12/01 11:43:10;;;;;;;1.40;0.50;;;10.30;99.90;;;;;;4967958;28;20465;-65
2021/12/01 11:45:38;;;;;;;1.90;0.80;;;10.30;99.90;;;;;;4968013;28;20459;-65
2021/12/01 11:48:09;;;;;;;1.90;0.60;;;10.30;99.90;;;;;;4967771;28;20472;-62
2021/12/01 11:50:43;;;;;;;2.53;1.20;;;10.40;99.90;;;;;;4967809;28;20458;-65
2021/12/01 11:53:22;;;;;;;1.90;0.73;;;10.60;99.90;;;;;;4968513;28;20456;-64
2021/12/01 11:55:58;;;;;;;1.60;0.70;;;10.70;99.90;;;;;;4968983;28;20452;-63
2021/12/01 11:58:57;;;;;;;1.70;0.70;;;10.80;99.90;;;;;;4968552;28;21040;-64
2021/12/01 12:02:02;;;;;;;1.50;0.60;;;10.90;99.90;;;;;;4928321;29;20449;-62
2021/12/01 12:04:51;;;;;;;2.27;0.60;;;10.90;99.90;;;;;;4970245;28;20891;-63
2021/12/01 12:07:21;;;;;;;1.50;0.50;;;11.00;99.90;;;;;;4966460;28;20456;-63
2021/12/01 12:10:10;;;;;;;1.63;0.60;;;11.20;99.90;;;;;;4968940;28;20559;-62
2021/12/01 12:13:04;;;;;;;1.73;0.53;;;11.30;99.90;;;;;;4970510;28;20444;-63
2021/12/01 12:15:46;;;;;;;1.63;0.63;;;11.30;99.90;;;;;;4966206;28;20500;-63
2021/12/01 12:18:15;;;;;;;1.90;0.70;;;11.30;99.90;;;;;;4968767;28;20929;-64
2021/12/01 12:20:47;;;;;;;1.60;0.60;;;11.30;99.90;;;;;;4968903;28;20448;-62
2021/12/01 12:23:16;;;;;;;1.50;0.50;;;11.50;99.90;;;;;;4968963;28;20563;-64
2021/12/01 12:25:50;;;;;;;1.53;0.60;;;11.50;99.90;;;;;;4968122;28;20538;-61
2021/12/01 12:28:30;;;;;;;3.90;2.20;;;11.70;99.90;;;;;;4968498;28;20499;-67
2021/12/01 12:31:01;;;;;;;2.23;0.80;;;12.00;99.90;;;;;;4964721;28;20448;-65
2021/12/01 12:33:31;;;;;;;2.30;0.73;;;12.10;99.90;;;;;;4968643;28;20444;-65
2021/12/01 12:36:00;;;;;;;2.07;0.70;;;12.30;99.90;;;;;;4967946;28;20506;-65
2021/12/01 12:38:28;;;;;;;3.10;1.00;;;12.40;99.90;;;;;;4968367;28;20494;-65
2021/12/01 12:41:09;;;;;;;2.87;1.00;;;12.40;99.90;;;;;;4968543;28;20978;-64
2021/12/01 12:43:39;;;;;;;2.40;1.07;;;12.30;99.90;;;;;;4968946;28;20466;-64
2021/12/01 12:46:09;;;;;;;1.70;0.70;;;12.20;99.90;;;;;;4968842;28;20448;-65
2021/12/01 12:48:38;;;;;;;2.53;0.60;;;12.10;99.90;;;;;;4968948;28;20517;-66
2021/12/01 12:51:14;;;;;;;1.80;0.80;;;12.00;99.90;;;;;;4968659;28;20474;-64
2021/12/01 12:54:16;;;;;;;1.70;0.70;;;12.10;99.90;;;;;;4968794;28;20452;-64
2021/12/01 12:56:53;;;;;;;2.07;0.70;;;12.10;99.90;;;;;;4965845;28;20985;-65
2021/12/01 12:59:28;;;;;;;2.00;0.90;;;11.80;99.90;;;;;;4965837;28;20507;-66
2021/12/01 13:01:59;;;;;;;1.90;0.80;;;11.60;99.90;;;;;;4967452;28;20559;-65
2021/12/01 13:04:57;;;;;;;1.93;0.83;;;11.40;99.90;;;;;;4967771;28;21328;-65
2021/12/01 13:07:51;;;;;;;2.90;0.80;;;11.10;99.90;;;;;;4967374;28;21230;-65
2021/12/01 13:10:24;;;;;;;1.90;0.83;;;10.90;99.90;;;;;;4967902;28;20447;-65